createdAt,value
2023-01-26T00:00:58.058Z,14.47
2023-01-26T00:03:27.707Z,14.47
2023-01-26T00:05:55.120Z,15.50
2023-01-26T00:08:22.531Z,16.10
2023-01-26T00:10:51.096Z,15.03
2023-01-26T00:13:20.207Z,14.83
2023-01-26T00:15:47.707Z,13.73
2023-01-26T00:18:15.999Z,15.67
2023-01-26T00:20:44.728Z,14.20
2023-01-26T00:23:12.361Z,15.10
2023-01-26T00:25:41.121Z,16.30
2023-01-26T00:28:08.537Z,16.23
2023-01-26T00:30:35.970Z,15.40
2023-01-26T00:33:03.497Z,15.70
2023-01-26T00:35:30.942Z,16.40
2023-01-26T00:37:59.899Z,15.83
2023-01-26T00:40:27.332Z,15.87
2023-01-26T00:42:55.326Z,15.27
2023-01-26T00:45:22.776Z,17.00
2023-01-26T00:47:50.364Z,16.73
2023-01-26T00:50:18.102Z,15.53
2023-01-26T00:52:45.519Z,16.23
2023-01-26T00:55:15.179Z,17.53
2023-01-26T00:57:42.661Z,17.67
2023-01-26T01:00:13.853Z,17.67
2023-01-26T01:02:41.344Z,17.30
2023-01-26T01:05:09.768Z,16.70
2023-01-26T01:07:37.270Z,17.80
2023-01-26T01:10:05.108Z,17.57
2023-01-26T01:12:33.837Z,18.10
2023-01-26T01:15:01.265Z,17.80
2023-01-26T01:17:28.873Z,17.30
2023-01-26T01:19:56.397Z,17.73
2023-01-26T01:22:23.895Z,17.77
2023-01-26T01:24:51.301Z,18.27
2023-01-26T01:27:18.798Z,18.50
2023-01-26T01:29:47.509Z,18.70
2023-01-26T01:32:14.932Z,17.50
2023-01-26T01:34:42.382Z,19.13
2023-01-26T01:37:09.890Z,18.47
2023-01-26T01:39:37.351Z,18.00
2023-01-26T01:42:05.084Z,19.40
2023-01-26T01:44:32.498Z,19.20
2023-01-26T01:47:03.997Z,20.30
2023-01-26T01:49:35.178Z,19.80
2023-01-26T01:52:07.507Z,19.03
2023-01-26T01:54:40.588Z,18.93
2023-01-26T01:57:15.510Z,19.23
2023-01-26T01:59:47.336Z,18.83
2023-01-26T02:02:16.660Z,19.30
2023-01-26T02:04:44.713Z,18.00
2023-01-26T02:07:12.904Z,17.87
2023-01-26T02:09:59.806Z,17.73
2023-01-26T02:12:31.092Z,17.97
2023-01-26T02:14:59.235Z,17.23
2023-01-26T02:17:28.175Z,19.80
2023-01-26T02:20:15.330Z,18.07
2023-01-26T02:22:48.879Z,16.50
2023-01-26T02:25:23.925Z,16.17
2023-01-26T02:27:52.748Z,16.40
2023-01-26T02:30:21.271Z,16.77
2023-01-26T02:32:48.693Z,17.50
2023-01-26T02:35:16.345Z,18.37
2023-01-26T02:37:43.737Z,18.60
2023-01-26T02:40:22.038Z,17.73
2023-01-26T02:42:48.534Z,17.30
2023-01-26T02:45:18.171Z,18.20
2023-01-26T02:47:45.863Z,18.80
2023-01-26T02:50:12.969Z,18.20
2023-01-26T02:52:40.880Z,17.30
2023-01-26T02:55:26.310Z,18.13
2023-01-26T02:57:55.485Z,17.40
2023-01-26T03:00:26.787Z,17.77
2023-01-26T03:02:56.553Z,16.30
2023-01-26T03:05:23.994Z,17.83
2023-01-26T03:07:51.436Z,17.57
2023-01-26T03:10:19.235Z,17.50
2023-01-26T03:12:47.136Z,18.03
2023-01-26T03:15:31.068Z,16.87
2023-01-26T03:18:31.050Z,16.00
2023-01-26T03:21:18.068Z,15.60
2023-01-26T03:24:03.451Z,16.67
2023-01-26T03:26:48.599Z,14.33
2023-01-26T03:29:16.044Z,14.93
2023-01-26T03:31:43.465Z,14.90
2023-01-26T03:34:12.310Z,14.43
2023-01-26T03:36:39.757Z,15.53
2023-01-26T03:39:07.470Z,15.73
2023-01-26T03:41:52.586Z,16.10
2023-01-26T03:44:37.308Z,16.13
2023-01-26T03:47:22.267Z,16.07
2023-01-26T03:50:08.954Z,15.60
2023-01-26T03:52:53.848Z,15.87
2023-01-26T03:55:38.529Z,15.87
2023-01-26T03:58:07.261Z,15.57
2023-01-26T04:00:34.677Z,13.90
2023-01-26T04:03:19.437Z,13.47
2023-01-26T04:06:15.476Z,14.37
2023-01-26T04:08:43.954Z,14.20
2023-01-26T04:11:11.444Z,11.73
2023-01-26T04:13:56.524Z,13.00
2023-01-26T04:16:41.385Z,14.57
2023-01-26T04:19:27.030Z,13.47
2023-01-26T04:21:55.888Z,13.73
2023-01-26T04:24:24.530Z,14.03
2023-01-26T04:26:52.096Z,15.43
2023-01-26T04:29:19.552Z,14.63
2023-01-26T04:31:47.074Z,14.03
2023-01-26T04:34:16.173Z,13.63
2023-01-26T04:36:43.930Z,15.77
2023-01-26T04:39:12.729Z,14.23
2023-01-26T04:41:42.257Z,14.10
2023-01-26T04:44:09.874Z,15.97
2023-01-26T04:46:37.284Z,15.50
2023-01-26T04:49:04.918Z,15.53
2023-01-26T04:51:32.429Z,15.83
2023-01-26T04:53:59.908Z,13.03
2023-01-26T04:56:31.606Z,15.03
2023-01-26T04:59:00.572Z,14.73
2023-01-26T05:01:28.988Z,14.60
2023-01-26T05:03:56.683Z,14.33
2023-01-26T05:06:24.141Z,14.00
2023-01-26T05:08:51.679Z,13.57
2023-01-26T05:11:19.424Z,13.33
2023-01-26T05:13:48.266Z,14.10
2023-01-26T05:16:16.563Z,14.43
2023-01-26T05:18:44.697Z,14.10
2023-01-26T05:21:12.389Z,15.43
2023-01-26T05:23:40.471Z,13.77
2023-01-26T05:26:08.242Z,14.50
2023-01-26T05:28:36.280Z,13.10
2023-01-26T05:31:05.583Z,14.80
2023-01-26T05:33:33.058Z,14.07
2023-01-26T05:36:05.262Z,13.70
2023-01-26T05:38:32.947Z,14.00
2023-01-26T05:41:00.349Z,13.83
2023-01-26T05:43:28.106Z,14.47
2023-01-26T05:45:55.817Z,13.20
2023-01-26T05:48:24.579Z,13.03
2023-01-26T05:50:51.964Z,12.23
2023-01-26T05:53:19.643Z,12.33
2023-01-26T05:55:47.097Z,13.30
2023-01-26T05:58:14.492Z,12.10
2023-01-26T06:00:41.933Z,13.10
2023-01-26T06:03:09.373Z,11.73
2023-01-26T06:05:38.827Z,10.37
2023-01-26T06:08:06.732Z,11.90
2023-01-26T06:10:34.169Z,13.07
2023-01-26T06:13:01.584Z,11.83
2023-01-26T06:15:29.017Z,13.53
2023-01-26T06:17:56.418Z,13.47
2023-01-26T06:20:23.838Z,13.23
2023-01-26T06:22:52.580Z,13.13
2023-01-26T06:25:20.045Z,12.20
2023-01-26T06:27:47.476Z,12.70
2023-01-26T06:30:15.858Z,13.90
2023-01-26T06:32:43.254Z,12.83
2023-01-26T06:35:10.933Z,13.97
2023-01-26T06:37:38.343Z,13.80
2023-01-26T06:40:08.853Z,13.93
2023-01-26T06:42:36.287Z,13.03
2023-01-26T06:45:03.731Z,12.63
2023-01-26T06:47:31.150Z,12.67
2023-01-26T06:49:58.560Z,12.83
2023-01-26T06:52:32.429Z,12.30
2023-01-26T06:55:01.396Z,12.30
2023-01-26T06:57:30.229Z,13.23
2023-01-26T06:59:57.948Z,12.80
2023-01-26T07:02:25.557Z,11.40
2023-01-26T07:04:53.500Z,13.10
2023-01-26T07:07:20.909Z,12.50
2023-01-26T07:09:48.368Z,12.07
2023-01-26T07:12:15.843Z,10.17
2023-01-26T07:14:44.618Z,10.03
2023-01-26T07:17:12.147Z,11.53
2023-01-26T07:19:39.601Z,11.00
2023-01-26T07:22:07.010Z,10.43
2023-01-26T07:24:34.472Z,10.00
2023-01-26T07:27:01.895Z,9.67
2023-01-26T07:29:29.304Z,11.30
2023-01-26T07:31:58.080Z,10.47
2023-01-26T07:34:25.512Z,10.93
2023-01-26T07:36:53.423Z,9.33
2023-01-26T07:39:20.867Z,8.93
2023-01-26T07:41:48.288Z,10.53
2023-01-26T07:44:15.933Z,10.43
2023-01-26T07:46:45.586Z,10.57
2023-01-26T07:49:14.600Z,11.50
2023-01-26T07:51:42.071Z,10.57
2023-01-26T07:54:12.835Z,9.50
2023-01-26T07:56:40.276Z,10.13
2023-01-26T07:59:07.728Z,9.93
2023-01-26T08:01:35.146Z,9.40
2023-01-26T08:04:02.593Z,9.13
2023-01-26T08:06:31.344Z,9.13
2023-01-26T08:08:58.937Z,9.30
2023-01-26T08:11:26.910Z,10.67
2023-01-26T08:13:54.336Z,11.60
2023-01-26T08:16:21.908Z,9.47
2023-01-26T08:18:49.885Z,9.93
2023-01-26T08:21:18.781Z,9.23
2023-01-26T08:23:51.089Z,10.40
2023-01-26T08:26:20.902Z,8.23
2023-01-26T08:28:48.789Z,9.93
2023-01-26T08:31:19.740Z,9.47
2023-01-26T08:33:48.634Z,8.37
2023-01-26T08:36:16.767Z,9.33
2023-01-26T08:38:44.912Z,9.27
2023-01-26T08:41:14.155Z,9.97
2023-01-26T08:43:41.581Z,9.93
2023-01-26T08:46:10.255Z,10.33
2023-01-26T08:48:38.534Z,8.83
2023-01-26T08:51:08.035Z,9.83
2023-01-26T08:53:37.358Z,7.97
2023-01-26T08:56:06.781Z,9.17
2023-01-26T08:58:35.558Z,7.97
2023-01-26T09:01:05.795Z,9.47
2023-01-26T09:03:33.393Z,10.07
2023-01-26T09:06:01.191Z,9.27
2023-01-26T09:08:29.284Z,9.60
2023-01-26T09:10:57.037Z,8.77
2023-01-26T09:13:24.698Z,9.87
2023-01-26T09:15:53.467Z,9.90
2023-01-26T09:18:20.915Z,9.43
2023-01-26T09:20:49.775Z,9.50
2023-01-26T09:23:18.169Z,9.07
2023-01-26T09:25:46.024Z,5.40
2023-01-26T09:28:13.653Z,5.10
2023-01-26T09:30:41.367Z,5.60
2023-01-26T09:33:10.202Z,6.33
2023-01-26T09:35:37.637Z,5.93
2023-01-26T09:38:05.071Z,5.90
2023-01-26T09:40:39.738Z,6.43
2023-01-26T09:43:22.865Z,6.23
2023-01-26T09:45:58.685Z,6.50
2023-01-26T09:48:38.591Z,6.90
2023-01-26T09:51:12.848Z,5.90
2023-01-26T09:53:47.590Z,7.27
2023-01-26T09:56:19.324Z,6.80
2023-01-26T09:58:50.886Z,10.43
2023-01-26T10:01:25.433Z,9.93
2023-01-26T10:04:03.189Z,9.47
2023-01-26T10:06:32.197Z,10.03
2023-01-26T10:09:03.646Z,11.53
2023-01-26T10:11:36.279Z,11.03
2023-01-26T10:14:12.374Z,11.40
2023-01-26T10:16:39.902Z,9.40
2023-01-26T10:19:15.467Z,9.93
2023-01-26T10:21:48.003Z,10.10
2023-01-26T10:24:21.273Z,10.13
2023-01-26T10:26:48.829Z,10.73
2023-01-26T10:29:16.689Z,10.17
2023-01-26T10:31:45.822Z,10.47
2023-01-26T10:34:18.284Z,11.00
2023-01-26T10:36:47.562Z,10.97
2023-01-26T10:39:18.852Z,10.47
2023-01-26T10:41:58.156Z,11.23
2023-01-26T10:44:33.110Z,13.00
2023-01-26T10:47:14.949Z,11.30
2023-01-26T10:49:43.930Z,11.37
2023-01-26T10:52:17.432Z,11.60
2023-01-26T10:54:45.247Z,11.53
2023-01-26T10:57:19.276Z,11.23
2023-01-26T10:59:52.359Z,10.87
2023-01-26T11:02:27.073Z,9.47
2023-01-26T11:05:22.052Z,11.30
2023-01-26T11:07:51.649Z,9.43
2023-01-26T11:10:23.313Z,9.30
2023-01-26T11:12:51.557Z,9.87
2023-01-26T11:15:21.256Z,9.97
2023-01-26T11:17:58.652Z,9.90
2023-01-26T11:20:49.147Z,11.50
2023-01-26T11:23:25.096Z,9.60
2023-01-26T11:26:18.832Z,9.47
2023-01-26T11:28:59.749Z,9.43
2023-01-26T11:31:40.714Z,9.50
2023-01-26T11:34:22.721Z,8.97
2023-01-26T11:37:12.962Z,9.40
2023-01-26T11:39:48.894Z,8.77
2023-01-26T11:42:29.193Z,8.60
2023-01-26T11:45:16.301Z,8.90
2023-01-26T11:47:58.702Z,8.17
2023-01-26T11:50:34.986Z,8.73
2023-01-26T11:53:21.198Z,8.80
2023-01-26T11:56:00.060Z,8.73
2023-01-26T11:58:35.189Z,7.83
2023-01-26T12:01:05.968Z,8.57
2023-01-26T12:03:39.956Z,9.33
2023-01-26T12:06:15.119Z,9.07
2023-01-26T12:08:49.633Z,9.33
2023-01-26T12:11:25.203Z,10.13
2023-01-26T12:14:02.116Z,9.00
2023-01-26T12:16:39.146Z,9.87
2023-01-26T12:19:14.009Z,9.10
2023-01-26T12:21:46.203Z,7.43
2023-01-26T12:24:48.423Z,6.87
2023-01-26T12:27:17.381Z,7.67
2023-01-26T12:29:51.502Z,7.83
2023-01-26T12:32:19.201Z,7.07
2023-01-26T12:34:46.766Z,7.30
2023-01-26T12:37:43.231Z,6.93
2023-01-26T12:40:22.792Z,7.00
2023-01-26T12:42:57.981Z,7.20
2023-01-26T12:45:30.275Z,7.30
2023-01-26T12:48:05.803Z,7.00
2023-01-26T12:50:39.542Z,7.17
2023-01-26T12:53:12.036Z,6.77
2023-01-26T12:55:47.037Z,6.23
2023-01-26T12:58:20.110Z,6.93
2023-01-26T13:01:01.965Z,7.43
2023-01-26T13:03:32.213Z,7.27
2023-01-26T13:06:01.925Z,6.73
2023-01-26T13:08:42.282Z,6.70
2023-01-26T13:11:11.073Z,7.63
2023-01-26T13:13:54.901Z,8.03
2023-01-26T13:16:34.323Z,8.17
2023-01-26T13:19:03.377Z,8.07
2023-01-26T13:21:43.863Z,8.83
2023-01-26T13:24:42.763Z,8.17
2023-01-26T13:27:33.427Z,7.73
2023-01-26T13:30:01.540Z,8.23
2023-01-26T13:32:55.253Z,8.90
2023-01-26T13:35:25.424Z,9.07
2023-01-26T13:38:01.513Z,8.10
2023-01-26T13:40:32.674Z,8.50
2023-01-26T13:43:20.697Z,8.80
2023-01-26T13:46:00.985Z,18.40
2023-01-26T13:48:38.691Z,10.10
2023-01-26T13:51:09.059Z,10.70
2023-01-26T13:53:38.846Z,10.83
2023-01-26T13:56:08.135Z,11.33
2023-01-26T13:58:36.867Z,11.23
2023-01-26T14:01:07.214Z,11.57
2023-01-26T14:03:34.804Z,10.20
2023-01-26T14:06:05.064Z,10.97
2023-01-26T14:08:34.215Z,10.77
2023-01-26T14:11:04.715Z,11.40
2023-01-26T14:13:34.763Z,10.57
2023-01-26T14:16:08.482Z,9.40
2023-01-26T14:18:35.967Z,10.40
2023-01-26T14:21:05.552Z,9.57
2023-01-26T14:23:35.756Z,9.47
2023-01-26T14:26:05.600Z,9.67
2023-01-26T14:28:35.615Z,9.07
2023-01-26T14:31:10.477Z,9.87
2023-01-26T14:33:38.300Z,8.97
2023-01-26T14:36:06.728Z,11.33
2023-01-26T14:38:43.819Z,11.63
2023-01-26T14:41:16.685Z,12.47
2023-01-26T14:43:44.125Z,11.97
2023-01-26T14:46:17.916Z,12.10
2023-01-26T14:48:50.942Z,13.70
2023-01-26T14:51:22.151Z,13.73
2023-01-26T14:53:51.571Z,13.23
2023-01-26T14:56:20.593Z,13.43
2023-01-26T14:58:52.325Z,13.37
2023-01-26T15:01:26.046Z,14.50
2023-01-26T15:03:59.730Z,14.97
2023-01-26T15:06:29.357Z,15.87
2023-01-26T15:09:02.637Z,14.57
2023-01-26T15:11:51.870Z,17.47
2023-01-26T15:14:32.583Z,16.30
2023-01-26T15:17:01.927Z,16.93
2023-01-26T15:19:34.099Z,16.07
2023-01-26T15:22:01.741Z,15.97
2023-01-26T15:24:29.316Z,16.10
2023-01-26T15:27:05.990Z,16.63
2023-01-26T15:29:35.058Z,16.17
2023-01-26T15:32:03.962Z,18.40
2023-01-26T15:34:33.816Z,16.03
2023-01-26T15:37:02.603Z,17.47
2023-01-26T15:39:30.336Z,17.87
2023-01-26T15:42:12.715Z,18.77
2023-01-26T15:44:41.043Z,18.87
2023-01-26T15:47:12.063Z,19.53
2023-01-26T15:49:39.988Z,17.03
2023-01-26T15:52:14.359Z,18.27
2023-01-26T15:54:42.071Z,18.73
2023-01-26T15:57:10.756Z,21.77
2023-01-26T15:59:38.810Z,20.33
2023-01-26T16:02:14.755Z,21.00
2023-01-26T16:04:42.620Z,18.17
2023-01-26T16:07:13.928Z,19.83
2023-01-26T16:09:41.886Z,16.90
2023-01-26T16:12:15.020Z,18.97
2023-01-26T16:14:49.893Z,19.43
2023-01-26T16:17:19.300Z,18.70
2023-01-26T16:19:46.668Z,17.63
2023-01-26T16:22:14.510Z,14.97
2023-01-26T16:24:41.970Z,17.73
2023-01-26T16:27:10.577Z,16.00
2023-01-26T16:29:38.028Z,15.53
2023-01-26T16:32:28.091Z,14.70
2023-01-26T16:34:55.729Z,15.13
2023-01-26T16:37:23.263Z,15.30
2023-01-26T16:39:50.664Z,14.07
2023-01-26T16:42:21.207Z,13.77
2023-01-26T16:44:48.919Z,14.30
2023-01-26T16:47:16.632Z,13.80
2023-01-26T16:49:45.476Z,15.40
2023-01-26T16:52:12.868Z,14.07
2023-01-26T16:54:40.246Z,15.37
2023-01-26T16:57:07.717Z,15.83
2023-01-26T16:59:35.170Z,15.37
2023-01-26T17:02:03.121Z,16.37
2023-01-26T17:04:30.586Z,15.13
2023-01-26T17:06:59.400Z,18.47
2023-01-26T17:09:26.818Z,16.57
2023-01-26T17:11:54.268Z,16.47
2023-01-26T17:14:21.885Z,16.87
2023-01-26T17:16:49.448Z,16.33
2023-01-26T17:19:16.932Z,14.70
2023-01-26T17:21:44.340Z,15.00
2023-01-26T17:24:13.274Z,14.93
2023-01-26T17:26:40.909Z,17.07
2023-01-26T17:29:08.791Z,17.50
2023-01-26T17:31:36.301Z,17.97
2023-01-26T17:34:03.917Z,18.27
2023-01-26T17:36:31.389Z,17.13
2023-01-26T17:38:58.999Z,18.63
2023-01-26T17:41:28.607Z,17.10
2023-01-26T17:43:56.274Z,17.80
2023-01-26T17:46:23.703Z,19.97
2023-01-26T17:48:51.978Z,20.03
2023-01-26T17:51:21.186Z,21.83
2023-01-26T17:53:50.488Z,19.77
2023-01-26T17:56:19.352Z,19.90
2023-01-26T17:58:50.964Z,18.60
2023-01-26T18:01:20.533Z,18.73
2023-01-26T18:03:48.230Z,20.50
2023-01-26T18:06:16.305Z,18.60
2023-01-26T18:08:43.771Z,19.63
2023-01-26T18:11:13.189Z,18.70
2023-01-26T18:13:41.289Z,19.10
2023-01-26T18:16:13.153Z,17.70
2023-01-26T18:18:40.837Z,16.80
2023-01-26T18:21:16.988Z,16.43
2023-01-26T18:23:46.263Z,17.20
2023-01-26T18:26:14.985Z,14.20
2023-01-26T18:28:43.295Z,15.57
2023-01-26T18:31:13.681Z,15.67
2023-01-26T18:33:41.176Z,15.77
2023-01-26T18:36:11.815Z,18.50
2023-01-26T18:38:40.421Z,17.30
2023-01-26T18:41:13.848Z,15.90
2023-01-26T18:43:42.213Z,18.57
2023-01-26T18:46:10.426Z,16.67
2023-01-26T18:48:39.247Z,16.47
2023-01-26T18:51:08.582Z,18.40
2023-01-26T18:53:38.500Z,17.87
2023-01-26T18:56:08.212Z,18.03
2023-01-26T18:58:37.053Z,18.07
2023-01-26T19:01:09.335Z,18.03
2023-01-26T19:03:37.497Z,18.10
2023-01-26T19:06:07.209Z,19.43
2023-01-26T19:08:35.423Z,19.10
2023-01-26T19:11:07.444Z,19.40
2023-01-26T19:13:35.795Z,18.53
2023-01-26T19:16:03.717Z,19.00
2023-01-26T19:18:31.144Z,17.83
2023-01-26T19:20:59.572Z,18.13
2023-01-26T19:23:28.921Z,20.33
2023-01-26T19:25:56.751Z,20.83
2023-01-26T19:28:24.231Z,21.27
2023-01-26T19:30:51.732Z,18.87
2023-01-26T19:33:25.180Z,21.73
2023-01-26T19:35:53.094Z,19.43
2023-01-26T19:38:21.498Z,18.13
2023-01-26T19:40:51.810Z,17.50
2023-01-26T19:43:20.286Z,19.63
2023-01-26T19:45:49.048Z,18.90
2023-01-26T19:48:16.800Z,17.73
2023-01-26T19:50:44.384Z,18.97
2023-01-26T19:53:12.032Z,18.03
2023-01-26T19:55:39.437Z,19.97
2023-01-26T19:58:09.562Z,18.70
2023-01-26T20:00:37.034Z,17.63
2023-01-26T20:03:04.783Z,19.10
2023-01-26T20:05:32.721Z,17.77
2023-01-26T20:08:00.199Z,18.27
2023-01-26T20:10:27.731Z,17.03
2023-01-26T20:12:57.229Z,16.90
2023-01-26T20:15:26.089Z,19.80
2023-01-26T20:17:53.627Z,16.77
2023-01-26T20:20:21.106Z,16.63
2023-01-26T20:22:48.534Z,17.70
2023-01-26T20:25:16.093Z,17.13
2023-01-26T20:27:43.624Z,17.30
2023-01-26T20:30:12.514Z,18.50
2023-01-26T20:32:41.736Z,17.93
2023-01-26T20:35:10.112Z,17.70
2023-01-26T20:37:37.877Z,16.73
2023-01-26T20:40:07.815Z,16.63
2023-01-26T20:42:35.855Z,15.70
2023-01-26T20:45:03.282Z,17.13
2023-01-26T20:47:33.973Z,16.13
2023-01-26T20:50:02.963Z,16.43
2023-01-26T20:52:30.499Z,15.80
2023-01-26T20:54:57.976Z,16.47
2023-01-26T20:57:25.486Z,15.53
2023-01-26T20:59:52.884Z,16.97
2023-01-26T21:02:20.338Z,16.07
2023-01-26T21:04:48.192Z,16.33
2023-01-26T21:07:17.040Z,15.23
2023-01-26T21:09:44.458Z,14.83
2023-01-26T21:12:11.988Z,15.80
2023-01-26T21:14:39.405Z,15.33
2023-01-26T21:17:07.723Z,16.23
2023-01-26T21:19:35.113Z,15.33
2023-01-26T21:22:02.963Z,14.53
2023-01-26T21:24:31.682Z,14.60
2023-01-26T21:26:59.130Z,15.10
2023-01-26T21:29:26.657Z,16.37
2023-01-26T21:31:54.083Z,15.93
2023-01-26T21:34:21.710Z,14.17
2023-01-26T21:36:49.623Z,15.47
2023-01-26T21:39:17.293Z,14.70
2023-01-26T21:41:59.097Z,13.80
2023-01-26T21:44:28.368Z,13.50
2023-01-26T21:46:57.822Z,14.00
2023-01-26T21:49:26.487Z,13.73
2023-01-26T21:52:11.987Z,15.50
2023-01-26T21:54:40.195Z,14.17
2023-01-26T21:57:24.574Z,16.23
2023-01-26T21:59:52.058Z,13.63
2023-01-26T22:02:19.721Z,12.63
2023-01-26T22:04:47.517Z,12.57
2023-01-26T22:07:15.034Z,12.37
2023-01-26T22:09:42.632Z,10.40
2023-01-26T22:12:11.438Z,11.03
2023-01-26T22:14:39.028Z,9.93
2023-01-26T22:17:06.459Z,9.43
2023-01-26T22:19:33.911Z,10.80
2023-01-26T22:22:02.238Z,11.17
2023-01-26T22:24:29.951Z,10.40
2023-01-26T22:26:57.597Z,10.67
2023-01-26T22:29:26.407Z,13.00
2023-01-26T22:31:53.890Z,13.57
2023-01-26T22:34:21.660Z,13.27
2023-01-26T22:36:49.108Z,14.40
2023-01-26T22:39:16.554Z,13.57
2023-01-26T22:41:44.489Z,12.73
2023-01-26T22:44:11.945Z,13.47
2023-01-26T22:46:40.681Z,12.97
2023-01-26T22:49:08.174Z,13.60
2023-01-26T22:51:37.319Z,14.70
2023-01-26T22:54:06.017Z,13.30
2023-01-26T22:56:33.610Z,11.87
2023-01-26T22:59:01.123Z,13.67
2023-01-26T23:01:30.115Z,13.10
2023-01-26T23:04:01.781Z,13.63
2023-01-26T23:06:29.956Z,14.20
2023-01-26T23:08:58.285Z,13.33
2023-01-26T23:11:27.970Z,12.90
2023-01-26T23:13:57.311Z,12.50
2023-01-26T23:16:26.544Z,21.70
2023-01-26T23:18:55.879Z,13.70
2023-01-26T23:21:24.985Z,11.60
2023-01-26T23:23:52.738Z,12.73
2023-01-26T23:26:20.487Z,12.23
2023-01-26T23:28:48.418Z,13.27
2023-01-26T23:31:17.565Z,12.30
2023-01-26T23:33:45.158Z,10.77
2023-01-26T23:36:14.338Z,14.67
2023-01-26T23:38:44.234Z,11.50
2023-01-26T23:41:12.041Z,12.93
2023-01-26T23:43:40.066Z,11.53
2023-01-26T23:46:09.306Z,10.90
2023-01-26T23:48:37.278Z,11.63
2023-01-26T23:51:07.463Z,12.47
2023-01-26T23:53:35.523Z,12.30
2023-01-26T23:56:07.877Z,11.60
2023-01-26T23:58:36.633Z,11.90
